createdAt,value
2023-01-03T00:04:49.439Z,105.67979
2023-01-03T00:09:51.002Z,105.67979
2023-01-03T00:14:51.959Z,104.83551
2023-01-03T00:19:52.933Z,106.10526
2023-01-03T00:24:53.939Z,106.96296
2023-01-03T00:29:54.883Z,106.96296
2023-01-03T00:34:59.010Z,108.26667
2023-01-03T00:40:04.129Z,107.82979
2023-01-03T00:45:05.168Z,110.48649
2023-01-03T00:50:06.117Z,110.48649
2023-01-03T00:55:07.032Z,112.30601
2023-01-03T01:00:08.037Z,111.84741
2023-01-03T01:05:08.974Z,112.30601
2023-01-03T01:10:09.953Z,114.16575
2023-01-03T01:15:10.821Z,114.16575
2023-01-03T01:20:11.780Z,114.63712
2023-01-03T01:25:12.716Z,117.52113
2023-01-03T01:30:13.622Z,117.03371
2023-01-03T01:35:14.517Z,117.52113
2023-01-03T01:40:15.519Z,117.52113
2023-01-03T01:45:16.383Z,117.52113
2023-01-03T01:50:17.332Z,116.06704
2023-01-03T01:55:18.298Z,118.0113
2023-01-03T02:00:19.291Z,116.54902
2023-01-03T02:05:20.231Z,114.63712
2023-01-03T02:10:21.314Z,111.3913
2023-01-03T02:15:22.229Z,116.06704
2023-01-03T02:20:23.168Z,114.63712
2023-01-03T02:25:24.172Z,111.3913
2023-01-03T02:30:25.158Z,109.14745
2023-01-03T02:35:26.240Z,108.70588
2023-01-03T02:40:27.466Z,110.93767
2023-01-03T02:45:28.370Z,113.69697
2023-01-03T02:50:29.306Z,117.52113
2023-01-03T02:55:30.247Z,117.03371
2023-01-03T03:00:31.203Z,117.03371
2023-01-03T03:05:32.112Z,118.50425
2023-01-03T03:10:33.146Z,119.0
2023-01-03T03:15:34.054Z,119.49858
2023-01-03T03:20:35.062Z,117.52113
2023-01-03T03:25:36.197Z,118.0113
2023-01-03T03:30:37.201Z,116.06704
2023-01-03T03:35:38.147Z,115.11111
2023-01-03T03:40:39.094Z,114.63712
2023-01-03T03:45:40.054Z,119.0
2023-01-03T03:50:40.984Z,120.0
2023-01-03T03:55:41.912Z,119.49858
2023-01-03T04:00:42.808Z,118.50425
2023-01-03T04:05:43.732Z,119.0
2023-01-03T04:10:44.675Z,120.0
2023-01-03T04:15:45.599Z,116.54902
2023-01-03T04:20:46.537Z,113.69697
2023-01-03T04:25:47.511Z,113.69697
2023-01-03T04:30:48.408Z,113.69697
2023-01-03T04:35:49.317Z,119.49858
2023-01-03T04:40:50.331Z,120.5043
2023-01-03T04:45:51.310Z,122.55072
2023-01-03T04:50:52.298Z,122.03468
2023-01-03T04:55:53.220Z,121.52161
2023-01-03T05:00:54.232Z,123.06977
2023-01-03T05:05:55.236Z,119.49858
2023-01-03T05:10:56.159Z,117.03371
2023-01-03T05:15:57.097Z,115.11111
2023-01-03T05:20:58.037Z,113.69697
2023-01-03T05:25:58.935Z,115.58774
2023-01-03T05:30:59.899Z,115.58774
2023-01-03T05:36:00.798Z,114.16575
2023-01-03T05:41:01.890Z,113.69697
2023-01-03T05:46:02.962Z,113.23077
2023-01-03T05:51:04.066Z,112.30601
2023-01-03T05:56:04.982Z,112.76712
2023-01-03T06:01:05.982Z,112.76712
2023-01-03T06:06:06.987Z,113.23077
2023-01-03T06:11:07.975Z,115.11111
2023-01-03T06:16:09.105Z,115.11111
2023-01-03T06:21:10.206Z,116.06704
2023-01-03T06:26:11.241Z,114.16575
2023-01-03T06:31:12.323Z,112.30601
2023-01-03T06:36:13.348Z,111.84741
2023-01-03T06:41:14.367Z,111.3913
2023-01-03T06:46:15.480Z,110.93767
2023-01-03T06:51:16.461Z,109.5914
2023-01-03T06:56:17.364Z,108.70588
2023-01-03T07:01:18.430Z,107.39523
2023-01-03T07:06:19.383Z,107.39523
2023-01-03T07:11:20.298Z,106.96296
2023-01-03T07:16:21.309Z,106.96296
2023-01-03T07:21:22.261Z,107.39523
2023-01-03T07:26:23.189Z,107.39523
2023-01-03T07:31:24.246Z,107.39523
2023-01-03T07:36:25.223Z,106.10526
2023-01-03T07:41:26.446Z,106.10526
2023-01-03T07:46:27.721Z,106.53298
2023-01-03T07:51:28.636Z,106.53298
2023-01-03T07:56:29.557Z,106.96296
2023-01-03T08:01:30.759Z,106.10526
2023-01-03T08:06:31.907Z,105.67979
2023-01-03T08:11:32.909Z,105.25654
2023-01-03T08:16:33.856Z,105.67979
2023-01-03T08:21:34.789Z,106.53298
2023-01-03T08:26:35.801Z,106.96296
2023-01-03T08:31:36.775Z,107.39523
2023-01-03T08:36:37.675Z,107.39523
2023-01-03T08:41:38.661Z,107.82979
2023-01-03T08:46:39.654Z,107.82979
2023-01-03T08:51:40.672Z,104.83551
2023-01-03T08:56:41.683Z,106.96296
2023-01-03T09:01:42.810Z,106.10526
2023-01-03T09:06:43.961Z,105.67979
2023-01-03T09:11:44.989Z,105.25654
2023-01-03T09:16:49.086Z,104.0
2023-01-03T09:21:50.642Z,102.76289
2023-01-03T09:26:54.838Z,103.17313
2023-01-03T09:31:56.264Z,101.94872
2023-01-03T09:36:57.308Z,101.54476
2023-01-03T09:41:58.340Z,101.94872
2023-01-03T09:46:59.360Z,101.54476
2023-01-03T09:52:00.392Z,103.17313
2023-01-03T09:57:01.428Z,102.35476
2023-01-03T10:02:02.496Z,100.34518
2023-01-03T10:07:03.629Z,100.34518
2023-01-03T10:12:04.617Z,101.54476
2023-01-03T10:17:05.692Z,99.16373
2023-01-03T10:22:06.699Z,97.61596
2023-01-03T10:27:07.642Z,97.61596
2023-01-03T10:32:08.768Z,96.47525
2023-01-03T10:37:09.748Z,98.0
2023-01-03T10:42:10.709Z,100.34518
2023-01-03T10:47:11.636Z,99.55556
2023-01-03T10:52:12.704Z,101.14286
2023-01-03T10:57:13.892Z,102.76289
2023-01-03T11:02:15.187Z,102.35476
2023-01-03T11:07:16.558Z,108.26667
2023-01-03T11:12:17.611Z,106.96296
2023-01-03T11:17:18.573Z,108.70588
2023-01-03T11:22:19.517Z,107.82979
2023-01-03T11:27:20.477Z,104.41667
2023-01-03T11:32:21.832Z,102.35476
2023-01-03T11:37:22.979Z,104.0
2023-01-03T11:42:23.983Z,107.82979
2023-01-03T11:47:24.937Z,108.26667
2023-01-03T11:52:26.040Z,103.17313
2023-01-03T11:57:27.289Z,101.14286
2023-01-03T12:02:28.555Z,100.743
2023-01-03T12:07:48.551Z,104.83551
2023-01-03T12:12:51.164Z,106.10526
2023-01-03T12:17:52.140Z,106.10526
2023-01-03T12:22:53.107Z,106.96296
2023-01-03T12:27:54.171Z,106.53298
2023-01-03T12:32:55.301Z,105.25654
2023-01-03T12:37:56.245Z,108.70588
2023-01-03T12:42:57.292Z,112.76712
2023-01-03T12:47:58.267Z,105.25654
2023-01-03T12:52:59.215Z,90.66667
2023-01-03T12:58:00.302Z,87.58974
2023-01-03T13:03:01.650Z,88.94118
2023-01-03T13:08:02.846Z,96.8536
2023-01-03T13:13:03.904Z,100.34518
2023-01-03T13:18:05.005Z,104.0
2023-01-03T13:23:05.959Z,103.58549
2023-01-03T13:28:06.860Z,103.58549
2023-01-03T13:33:07.804Z,102.35476
2023-01-03T13:38:08.781Z,107.82979
2023-01-03T13:43:09.755Z,108.70588
2023-01-03T13:48:10.719Z,109.5914
2023-01-03T13:53:11.679Z,114.16575
2023-01-03T13:58:12.759Z,114.16575
2023-01-03T14:03:13.903Z,113.69697
2023-01-03T14:08:14.971Z,114.16575
2023-01-03T14:13:16.099Z,115.11111
2023-01-03T14:18:17.094Z,116.54902
2023-01-03T14:23:57.782Z,119.49858
2023-01-03T14:29:00.490Z,116.54902
2023-01-03T14:34:01.497Z,116.54902
2023-01-03T14:39:02.604Z,116.54902
2023-01-03T14:44:03.573Z,113.69697
2023-01-03T14:49:04.550Z,113.69697
2023-01-03T14:54:05.528Z,116.06704
2023-01-03T14:59:06.471Z,113.69697
2023-01-03T15:04:07.428Z,111.84741
2023-01-03T15:09:08.372Z,111.3913
2023-01-03T15:14:09.399Z,109.5914
2023-01-03T15:19:10.392Z,106.53298
2023-01-03T15:24:11.330Z,105.25654
2023-01-03T15:29:12.371Z,105.25654
2023-01-03T15:34:13.422Z,104.83551
2023-01-03T15:39:14.413Z,104.41667
2023-01-03T15:44:15.403Z,102.76289
2023-01-03T15:49:16.471Z,100.743
2023-01-03T15:54:17.459Z,100.743
2023-01-03T15:59:18.661Z,101.14286
2023-01-03T16:04:19.745Z,101.14286
2023-01-03T16:09:20.725Z,101.54476
2023-01-03T16:14:21.735Z,101.54476
2023-01-03T16:19:22.703Z,101.94872
2023-01-03T16:24:23.647Z,101.54476
2023-01-03T16:29:24.605Z,101.94872
2023-01-03T16:34:30.224Z,102.76289
2023-01-03T16:39:34.478Z,102.35476
2023-01-03T16:44:35.421Z,102.76289
2023-01-03T16:49:36.347Z,102.76289
2023-01-03T16:54:37.287Z,102.76289
2023-01-03T16:59:38.331Z,103.17313
2023-01-03T17:04:39.304Z,103.17313
2023-01-03T17:09:40.357Z,103.58549
2023-01-03T17:14:41.354Z,103.58549
2023-01-03T17:20:03.532Z,103.58549
2023-01-03T17:25:05.545Z,104.0
2023-01-03T17:30:06.770Z,104.41667
2023-01-03T17:35:07.762Z,104.83551
2023-01-03T17:40:08.732Z,104.41667
2023-01-03T17:45:09.744Z,104.41667
2023-01-03T17:50:10.729Z,104.83551
2023-01-03T17:55:11.648Z,104.83551
2023-01-03T18:00:12.622Z,104.83551
2023-01-03T18:05:17.548Z,104.83551
2023-01-03T18:10:22.146Z,104.83551
2023-01-03T18:15:23.127Z,105.25654
2023-01-03T18:20:24.072Z,105.25654
2023-01-03T18:25:25.079Z,105.25654
2023-01-03T18:30:26.050Z,105.67979
2023-01-03T18:35:32.524Z,105.67979
2023-01-03T18:40:38.388Z,105.25654
2023-01-03T18:45:39.394Z,105.25654
2023-01-03T18:50:40.507Z,105.67979
2023-01-03T18:55:41.661Z,105.67979
2023-01-03T19:00:42.643Z,105.67979
2023-01-03T19:05:43.680Z,106.10526
2023-01-03T19:10:44.673Z,106.10526
2023-01-03T19:15:46.103Z,106.10526
2023-01-03T19:20:47.327Z,106.10526
2023-01-03T19:25:48.314Z,106.10526
2023-01-03T19:30:49.307Z,105.67979
2023-01-03T19:35:50.254Z,106.10526
2023-01-03T19:40:51.154Z,106.10526
2023-01-03T19:45:52.120Z,105.67979
2023-01-03T19:50:53.221Z,105.67979
2023-01-03T19:55:54.341Z,105.25654
2023-01-03T20:00:55.279Z,105.25654
2023-01-03T20:05:56.223Z,105.25654
2023-01-03T20:10:57.182Z,105.67979
2023-01-03T20:15:58.207Z,105.25654
2023-01-03T20:20:59.296Z,104.83551
2023-01-03T20:26:00.659Z,104.41667
2023-01-03T20:31:01.801Z,104.0
2023-01-03T20:36:22.580Z,104.0
2023-01-03T20:41:24.728Z,104.0
2023-01-03T20:46:25.726Z,103.58549
2023-01-03T20:51:27.192Z,103.58549
2023-01-03T20:56:28.465Z,104.0
2023-01-03T21:01:29.549Z,104.41667
2023-01-03T21:06:30.637Z,104.0
2023-01-03T21:11:31.582Z,104.0
2023-01-03T21:16:32.738Z,104.0
2023-01-03T21:21:33.828Z,103.58549
2023-01-03T21:26:34.801Z,104.0
2023-01-03T21:31:36.135Z,103.58549
2023-01-03T21:36:37.197Z,103.58549
2023-01-03T21:41:38.157Z,103.58549
2023-01-03T21:46:39.293Z,103.58549
2023-01-03T21:51:40.258Z,103.17313
2023-01-03T21:56:41.227Z,103.17313
2023-01-03T22:01:47.504Z,102.76289
2023-01-03T22:06:48.684Z,102.76289
2023-01-03T22:11:49.651Z,102.76289
2023-01-03T22:16:50.729Z,102.35476
2023-01-03T22:21:51.734Z,101.94872
2023-01-03T22:26:52.713Z,101.94872
2023-01-03T22:31:53.783Z,101.94872
2023-01-03T22:36:54.812Z,102.35476
2023-01-03T22:41:56.047Z,102.76289
2023-01-03T22:46:56.995Z,103.58549
2023-01-03T22:51:58.066Z,104.0
2023-01-03T22:56:59.106Z,103.17313
2023-01-03T23:02:00.263Z,103.17313
2023-01-03T23:07:01.364Z,103.17313
2023-01-03T23:12:02.383Z,103.58549
2023-01-03T23:17:03.427Z,103.58549
2023-01-03T23:22:04.401Z,103.58549
2023-01-03T23:27:05.397Z,103.58549
2023-01-03T23:32:06.314Z,103.58549
2023-01-03T23:37:07.301Z,103.58549
2023-01-03T23:42:08.210Z,103.58549
2023-01-03T23:47:12.158Z,103.58549
2023-01-03T23:52:13.768Z,103.58549
2023-01-03T23:57:14.793Z,103.58549
